This is the latest recevied weather packets stored in our database for station/object JA6YCL-13. If no packets are shown the sender has not sent any weather packets the latest 10 day(s).
| Time | Temp. | Humidity | Pressure | Rain* | Wind** | Luminosity | Snow |
|---|---|---|---|---|---|---|---|
| 1777935498 | 13.89° C | 59% | 1021.4 hPa | 0 mm | - | - | - |
| 1777934748 | 13.33° C | 61% | 1021.5 hPa | 0 mm | - | - | - |
| 1777933891 | 12.78° C | 64% | 1021.3 hPa | 0 mm | - | - | - |
| 1777933024 | 11.67° C | 68% | 1021.3 hPa | 0 mm | - | - | - |
| 1777932261 | 10.56° C | 73% | 1021.3 hPa | 0 mm | - | - | - |
| 1777931438 | 10° C | 75% | 1021.3 hPa | 0 mm | - | - | - |
| 1777930683 | 9.44° C | 79% | 1021.4 hPa | 0 mm | - | - | - |
| 1777929948 | 8.89° C | 80% | 1021.3 hPa | 0 mm | - | - | - |
| 1777929066 | 8.89° C | 80% | 1021.1 hPa | 0 mm | - | - | - |
| 1777928258 | 8.33° C | 82% | 1020.9 hPa | 0 mm | - | - | - |
| 1777927533 | 8.33° C | 82% | 1020.8 hPa | 0 mm | - | - | - |
| 1777926788 | 8.89° C | 80% | 1020.8 hPa | 0 mm | - | - | - |
| 1777925953 | 8.33° C | 83% | 1020.7 hPa | 0 mm | - | - | - |
| 1777925118 | 8.89° C | 82% | 1020.6 hPa | 0 mm | - | - | - |
| 1777924368 | 8.89° C | 82% | 1020.6 hPa | 0 mm | - | - | - |
| 1777923573 | 8.33° C | 83% | 1020.5 hPa | 0 mm | - | - | - |
| 1777922838 | 8.89° C | 83% | 1020.3 hPa | 0 mm | - | - | - |
| 1777922103 | 9.44° C | 80% | 1020.4 hPa | 0 mm | - | - | - |
| 1777921238 | 8.89° C | 82% | 1020.3 hPa | 0 mm | - | - | - |
| 1777920488 | 9.44° C | 79% | 1020.2 hPa | 0 mm | - | - | - |
| 1777919643 | 9.44° C | 80% | 1020 hPa | 0 mm | - | - | - |
| 1777918868 | 9.44° C | 80% | 1020 hPa | 0 mm | - | - | - |
| 1777918013 | 9.44° C | 79% | 1019.7 hPa | 0 mm | - | - | - |
| 1777917278 | 9.44° C | 80% | 1019.7 hPa | 0 mm | - | - | - |
| 1777916533 | 10° C | 79% | 1019.5 hPa | 0 mm | - | - | - |
* Rain latest hour (hover to see other rain measurements)
** Current wind speed in m/s (hover to see current wind gust speed)